Terminal Aerodrome Forecast
Issued by NWS

Home | Current Version | Previous Version | Text Only | Print | Product List | Glossary Off
Versions: 1 2 3 4 5 6 7 8 9 10 11 12 13 14 15 16 17 18 19

000
FTUS43 KMPX 231737
TAFRNH
TAF
KRNH 231737Z 2318/2418 16014KT P6SM OVC040
     FM232000 15012KT P6SM VCSH OVC015
     FM240000 15010KT 6SM -SHRA OVC010
     FM240200 15007KT 5SM -SHRA OVC010
     FM240600 11004KT 3SM -SHRA BR OVC008
     FM240900 07004KT 1 1/2SM -SHRA BR OVC003
     FM241200 03005KT 3SM -RA OVC003
     FM241600 03007KT 2SM -RA OVC008=

USA.gov is the U.S. government's official web portal to all federal, state and local government web resources and services.